sensor_id;sensor_type;location;lat;lon;timestamp;P1;durP1;ratioP1;P2;durP2;ratioP2
2644;SDS011;15377;48.540;9.268;2022-12-07T00:01:08;19.10;;;11.47;;
2644;SDS011;15377;48.540;9.268;2022-12-07T00:03:38;16.38;;;10.85;;
2644;SDS011;15377;48.540;9.268;2022-12-07T00:06:05;18.42;;;10.98;;
2644;SDS011;15377;48.540;9.268;2022-12-07T00:08:32;21.65;;;14.35;;
2644;SDS011;15377;48.540;9.268;2022-12-07T00:11:08;14.05;;;10.15;;
2644;SDS011;15377;48.540;9.268;2022-12-07T00:13:36;17.50;;;11.07;;
2644;SDS011;15377;48.540;9.268;2022-12-07T00:16:06;16.35;;;10.10;;
2644;SDS011;15377;48.540;9.268;2022-12-07T00:18:33;13.93;;;9.27;;
2644;SDS011;15377;48.540;9.268;2022-12-07T00:21:03;25.60;;;15.30;;
2644;SDS011;15377;48.540;9.268;2022-12-07T00:23:30;15.65;;;8.93;;
2644;SDS011;15377;48.540;9.268;2022-12-07T00:25:55;15.03;;;9.90;;
2644;SDS011;15377;48.540;9.268;2022-12-07T00:28:21;17.50;;;10.63;;
2644;SDS011;15377;48.540;9.268;2022-12-07T00:30:46;15.53;;;9.83;;
2644;SDS011;15377;48.540;9.268;2022-12-07T00:33:12;15.93;;;9.87;;
2644;SDS011;15377;48.540;9.268;2022-12-07T00:35:37;17.23;;;10.13;;
2644;SDS011;15377;48.540;9.268;2022-12-07T00:38:02;14.83;;;9.07;;
2644;SDS011;15377;48.540;9.268;2022-12-07T00:40:28;18.03;;;10.43;;
2644;SDS011;15377;48.540;9.268;2022-12-07T00:42:53;14.60;;;9.10;;
2644;SDS011;15377;48.540;9.268;2022-12-07T00:45:18;15.00;;;9.37;;
2644;SDS011;15377;48.540;9.268;2022-12-07T00:47:44;14.33;;;9.60;;
2644;SDS011;15377;48.540;9.268;2022-12-07T00:50:09;14.60;;;9.10;;
2644;SDS011;15377;48.540;9.268;2022-12-07T00:52:34;14.20;;;10.17;;
2644;SDS011;15377;48.540;9.268;2022-12-07T00:55:00;16.70;;;9.00;;
2644;SDS011;15377;48.540;9.268;2022-12-07T00:57:25;15.93;;;10.17;;
2644;SDS011;15377;48.540;9.268;2022-12-07T00:59:50;16.37;;;9.17;;
2644;SDS011;15377;48.540;9.268;2022-12-07T01:02:20;13.75;;;9.48;;
2644;SDS011;15377;48.540;9.268;2022-12-07T01:04:45;14.57;;;9.27;;
2644;SDS011;15377;48.540;9.268;2022-12-07T01:07:11;18.47;;;9.40;;
2644;SDS011;15377;48.540;9.268;2022-12-07T01:09:36;15.77;;;9.07;;
2644;SDS011;15377;48.540;9.268;2022-12-07T01:12:01;13.47;;;8.23;;
2644;SDS011;15377;48.540;9.268;2022-12-07T01:14:27;15.38;;;8.43;;
2644;SDS011;15377;48.540;9.268;2022-12-07T01:16:53;11.40;;;7.30;;
2644;SDS011;15377;48.540;9.268;2022-12-07T01:19:18;16.43;;;8.53;;
2644;SDS011;15377;48.540;9.268;2022-12-07T01:21:43;13.13;;;7.53;;
2644;SDS011;15377;48.540;9.268;2022-12-07T01:24:09;11.43;;;7.73;;
2644;SDS011;15377;48.540;9.268;2022-12-07T01:26:35;14.15;;;8.65;;
2644;SDS011;15377;48.540;9.268;2022-12-07T01:29:01;12.97;;;9.47;;
2644;SDS011;15377;48.540;9.268;2022-12-07T01:31:27;13.77;;;8.53;;
2644;SDS011;15377;48.540;9.268;2022-12-07T01:33:54;13.52;;;8.07;;
2644;SDS011;15377;48.540;9.268;2022-12-07T01:38:48;13.60;;;7.97;;
2644;SDS011;15377;48.540;9.268;2022-12-07T01:41:19;13.23;;;8.45;;
2644;SDS011;15377;48.540;9.268;2022-12-07T01:46:53;13.00;;;7.38;;
2644;SDS011;15377;48.540;9.268;2022-12-07T01:49:26;14.43;;;7.80;;
2644;SDS011;15377;48.540;9.268;2022-12-07T01:54:31;11.75;;;8.32;;
2644;SDS011;15377;48.540;9.268;2022-12-07T01:56:58;12.80;;;7.72;;
2644;SDS011;15377;48.540;9.268;2022-12-07T01:59:24;13.88;;;8.02;;
2644;SDS011;15377;48.540;9.268;2022-12-07T02:01:51;15.80;;;8.57;;
2644;SDS011;15377;48.540;9.268;2022-12-07T02:04:18;15.05;;;9.05;;
2644;SDS011;15377;48.540;9.268;2022-12-07T02:06:43;13.40;;;8.17;;
2644;SDS011;15377;48.540;9.268;2022-12-07T02:09:10;15.82;;;9.60;;
2644;SDS011;15377;48.540;9.268;2022-12-07T02:11:36;13.27;;;8.40;;
2644;SDS011;15377;48.540;9.268;2022-12-07T02:14:01;15.07;;;8.60;;
2644;SDS011;15377;48.540;9.268;2022-12-07T02:28:05;12.40;;;7.90;;
2644;SDS011;15377;48.540;9.268;2022-12-07T02:30:40;14.75;;;8.73;;
2644;SDS011;15377;48.540;9.268;2022-12-07T02:36:16;15.25;;;9.55;;
2644;SDS011;15377;48.540;9.268;2022-12-07T02:38:45;12.35;;;7.80;;
2644;SDS011;15377;48.540;9.268;2022-12-07T02:41:22;15.23;;;9.48;;
2644;SDS011;15377;48.540;9.268;2022-12-07T02:43:54;13.60;;;8.90;;
2644;SDS011;15377;48.540;9.268;2022-12-07T02:46:23;13.32;;;8.10;;
2644;SDS011;15377;48.540;9.268;2022-12-07T02:48:52;14.57;;;8.65;;
2644;SDS011;15377;48.540;9.268;2022-12-07T02:51:21;12.88;;;8.32;;
2644;SDS011;15377;48.540;9.268;2022-12-07T02:53:46;12.98;;;7.50;;
2644;SDS011;15377;48.540;9.268;2022-12-07T03:07:21;17.90;;;10.60;;
2644;SDS011;15377;48.540;9.268;2022-12-07T03:09:59;17.45;;;11.82;;
2644;SDS011;15377;48.540;9.268;2022-12-07T03:12:35;17.30;;;10.88;;
2644;SDS011;15377;48.540;9.268;2022-12-07T03:15:10;17.40;;;9.50;;
2644;SDS011;15377;48.540;9.268;2022-12-07T03:17:40;16.90;;;10.07;;
2644;SDS011;15377;48.540;9.268;2022-12-07T03:20:09;17.33;;;9.55;;
2644;SDS011;15377;48.540;9.268;2022-12-07T03:22:38;16.38;;;9.27;;
2644;SDS011;15377;48.540;9.268;2022-12-07T03:25:09;17.17;;;9.90;;
2644;SDS011;15377;48.540;9.268;2022-12-07T03:27:38;15.70;;;9.70;;
2644;SDS011;15377;48.540;9.268;2022-12-07T03:30:10;15.45;;;8.82;;
2644;SDS011;15377;48.540;9.268;2022-12-07T03:32:41;13.75;;;9.35;;
2644;SDS011;15377;48.540;9.268;2022-12-07T03:35:15;15.20;;;8.68;;
2644;SDS011;15377;48.540;9.268;2022-12-07T03:37:55;17.73;;;9.63;;
2644;SDS011;15377;48.540;9.268;2022-12-07T03:40:35;14.50;;;9.65;;
2644;SDS011;15377;48.540;9.268;2022-12-07T03:43:05;17.40;;;10.23;;
2644;SDS011;15377;48.540;9.268;2022-12-07T03:45:38;17.80;;;10.35;;
2644;SDS011;15377;48.540;9.268;2022-12-07T03:48:22;15.82;;;9.23;;
2644;SDS011;15377;48.540;9.268;2022-12-07T03:53:35;17.50;;;10.55;;
2644;SDS011;15377;48.540;9.268;2022-12-07T03:56:05;18.63;;;12.60;;
2644;SDS011;15377;48.540;9.268;2022-12-07T03:58:33;19.00;;;10.65;;
2644;SDS011;15377;48.540;9.268;2022-12-07T04:00:59;20.65;;;12.15;;
2644;SDS011;15377;48.540;9.268;2022-12-07T04:03:24;19.90;;;11.43;;
2644;SDS011;15377;48.540;9.268;2022-12-07T04:05:50;19.30;;;11.83;;
2644;SDS011;15377;48.540;9.268;2022-12-07T04:08:15;18.50;;;10.83;;
2644;SDS011;15377;48.540;9.268;2022-12-07T04:10:41;19.13;;;12.50;;
2644;SDS011;15377;48.540;9.268;2022-12-07T04:13:06;20.30;;;12.27;;
2644;SDS011;15377;48.540;9.268;2022-12-07T04:15:31;17.63;;;11.27;;
2644;SDS011;15377;48.540;9.268;2022-12-07T04:17:57;20.60;;;13.20;;
2644;SDS011;15377;48.540;9.268;2022-12-07T04:20:22;18.00;;;11.23;;
2644;SDS011;15377;48.540;9.268;2022-12-07T04:22:47;20.47;;;12.50;;
2644;SDS011;15377;48.540;9.268;2022-12-07T04:25:13;21.47;;;12.10;;
2644;SDS011;15377;48.540;9.268;2022-12-07T04:27:38;20.70;;;11.40;;
2644;SDS011;15377;48.540;9.268;2022-12-07T04:30:04;18.60;;;11.00;;
2644;SDS011;15377;48.540;9.268;2022-12-07T04:32:29;19.23;;;10.98;;
2644;SDS011;15377;48.540;9.268;2022-12-07T04:34:55;17.80;;;11.00;;
2644;SDS011;15377;48.540;9.268;2022-12-07T04:37:20;22.13;;;11.70;;
2644;SDS011;15377;48.540;9.268;2022-12-07T04:39:45;17.57;;;10.53;;
2644;SDS011;15377;48.540;9.268;2022-12-07T04:42:11;18.07;;;10.73;;
2644;SDS011;15377;48.540;9.268;2022-12-07T04:44:37;16.30;;;10.10;;
2644;SDS011;15377;48.540;9.268;2022-12-07T04:47:03;24.43;;;12.30;;
2644;SDS011;15377;48.540;9.268;2022-12-07T04:49:29;20.00;;;12.77;;
2644;SDS011;15377;48.540;9.268;2022-12-07T04:51:54;17.27;;;10.93;;
2644;SDS011;15377;48.540;9.268;2022-12-07T04:54:20;18.40;;;11.40;;
2644;SDS011;15377;48.540;9.268;2022-12-07T04:56:45;19.37;;;12.00;;
2644;SDS011;15377;48.540;9.268;2022-12-07T04:59:11;20.03;;;11.47;;
2644;SDS011;15377;48.540;9.268;2022-12-07T05:01:37;19.92;;;10.93;;
2644;SDS011;15377;48.540;9.268;2022-12-07T05:04:03;22.30;;;12.63;;
2644;SDS011;15377;48.540;9.268;2022-12-07T05:06:29;22.90;;;11.70;;
2644;SDS011;15377;48.540;9.268;2022-12-07T05:08:54;16.30;;;10.13;;
2644;SDS011;15377;48.540;9.268;2022-12-07T05:11:19;19.00;;;12.17;;
2644;SDS011;15377;48.540;9.268;2022-12-07T05:14:04;15.57;;;10.77;;
2644;SDS011;15377;48.540;9.268;2022-12-07T05:16:32;19.55;;;11.20;;
2644;SDS011;15377;48.540;9.268;2022-12-07T05:18:57;20.30;;;10.60;;
2644;SDS011;15377;48.540;9.268;2022-12-07T05:21:23;20.80;;;11.60;;
2644;SDS011;15377;48.540;9.268;2022-12-07T05:23:48;21.70;;;11.70;;
2644;SDS011;15377;48.540;9.268;2022-12-07T05:26:13;18.53;;;10.87;;
2644;SDS011;15377;48.540;9.268;2022-12-07T05:28:39;18.17;;;10.70;;
2644;SDS011;15377;48.540;9.268;2022-12-07T05:31:04;20.60;;;12.00;;
2644;SDS011;15377;48.540;9.268;2022-12-07T05:33:30;24.90;;;12.10;;
2644;SDS011;15377;48.540;9.268;2022-12-07T05:35:55;21.00;;;13.03;;
2644;SDS011;15377;48.540;9.268;2022-12-07T05:38:20;18.93;;;11.73;;
2644;SDS011;15377;48.540;9.268;2022-12-07T05:40:46;20.80;;;11.90;;
2644;SDS011;15377;48.540;9.268;2022-12-07T05:43:11;21.03;;;13.50;;
2644;SDS011;15377;48.540;9.268;2022-12-07T05:45:36;24.23;;;13.43;;
2644;SDS011;15377;48.540;9.268;2022-12-07T05:48:02;22.37;;;12.60;;
2644;SDS011;15377;48.540;9.268;2022-12-07T05:50:27;20.63;;;12.70;;
2644;SDS011;15377;48.540;9.268;2022-12-07T05:52:53;22.67;;;14.43;;
2644;SDS011;15377;48.540;9.268;2022-12-07T05:55:18;25.00;;;13.73;;
2644;SDS011;15377;48.540;9.268;2022-12-07T05:57:44;22.40;;;13.07;;
2644;SDS011;15377;48.540;9.268;2022-12-07T06:00:29;19.48;;;12.02;;
2644;SDS011;15377;48.540;9.268;2022-12-07T06:02:54;24.20;;;13.87;;
2644;SDS011;15377;48.540;9.268;2022-12-07T06:05:20;25.70;;;14.40;;
2644;SDS011;15377;48.540;9.268;2022-12-07T06:07:45;24.53;;;13.47;;
2644;SDS011;15377;48.540;9.268;2022-12-07T06:10:10;24.57;;;13.70;;
2644;SDS011;15377;48.540;9.268;2022-12-07T06:12:36;21.47;;;12.83;;
2644;SDS011;15377;48.540;9.268;2022-12-07T06:15:03;23.08;;;13.10;;
2644;SDS011;15377;48.540;9.268;2022-12-07T06:17:29;22.87;;;12.40;;
2644;SDS011;15377;48.540;9.268;2022-12-07T06:19:54;20.93;;;11.30;;
2644;SDS011;15377;48.540;9.268;2022-12-07T06:22:20;22.43;;;13.30;;
2644;SDS011;15377;48.540;9.268;2022-12-07T06:24:45;23.40;;;14.60;;
2644;SDS011;15377;48.540;9.268;2022-12-07T06:27:11;24.93;;;13.97;;
2644;SDS011;15377;48.540;9.268;2022-12-07T06:29:36;23.00;;;12.50;;
2644;SDS011;15377;48.540;9.268;2022-12-07T06:32:02;22.87;;;12.80;;
2644;SDS011;15377;48.540;9.268;2022-12-07T06:34:28;25.63;;;13.48;;
2644;SDS011;15377;48.540;9.268;2022-12-07T06:36:54;21.37;;;12.27;;
2644;SDS011;15377;48.540;9.268;2022-12-07T06:39:24;22.30;;;12.80;;
2644;SDS011;15377;48.540;9.268;2022-12-07T06:41:51;22.10;;;12.73;;
2644;SDS011;15377;48.540;9.268;2022-12-07T06:44:17;24.00;;;12.27;;
2644;SDS011;15377;48.540;9.268;2022-12-07T06:46:42;19.77;;;12.60;;
2644;SDS011;15377;48.540;9.268;2022-12-07T06:49:08;22.83;;;13.20;;
2644;SDS011;15377;48.540;9.268;2022-12-07T06:51:34;23.73;;;13.07;;
2644;SDS011;15377;48.540;9.268;2022-12-07T06:54:01;25.02;;;13.23;;
2644;SDS011;15377;48.540;9.268;2022-12-07T06:56:28;23.13;;;14.00;;
2644;SDS011;15377;48.540;9.268;2022-12-07T06:58:53;21.77;;;12.80;;
2644;SDS011;15377;48.540;9.268;2022-12-07T07:01:19;25.43;;;13.83;;
2644;SDS011;15377;48.540;9.268;2022-12-07T07:03:45;43.30;;;24.30;;
2644;SDS011;15377;48.540;9.268;2022-12-07T07:06:11;30.70;;;18.40;;
2644;SDS011;15377;48.540;9.268;2022-12-07T07:08:37;26.50;;;15.43;;
2644;SDS011;15377;48.540;9.268;2022-12-07T07:11:03;26.08;;;13.93;;
2644;SDS011;15377;48.540;9.268;2022-12-07T07:13:29;33.05;;;17.52;;
2644;SDS011;15377;48.540;9.268;2022-12-07T07:15:55;26.87;;;14.87;;
2644;SDS011;15377;48.540;9.268;2022-12-07T07:18:20;27.47;;;16.40;;
2644;SDS011;15377;48.540;9.268;2022-12-07T07:20:46;28.33;;;15.40;;
2644;SDS011;15377;48.540;9.268;2022-12-07T07:23:11;25.40;;;16.00;;
2644;SDS011;15377;48.540;9.268;2022-12-07T07:25:37;24.60;;;14.97;;
2644;SDS011;15377;48.540;9.268;2022-12-07T07:28:02;26.80;;;15.00;;
2644;SDS011;15377;48.540;9.268;2022-12-07T07:30:28;24.60;;;14.03;;
2644;SDS011;15377;48.540;9.268;2022-12-07T07:33:00;25.10;;;14.30;;
2644;SDS011;15377;48.540;9.268;2022-12-07T07:35:27;23.80;;;14.23;;
2644;SDS011;15377;48.540;9.268;2022-12-07T07:37:53;19.88;;;12.40;;
2644;SDS011;15377;48.540;9.268;2022-12-07T07:40:18;23.13;;;13.80;;
2644;SDS011;15377;48.540;9.268;2022-12-07T07:42:46;22.40;;;12.13;;
2644;SDS011;15377;48.540;9.268;2022-12-07T07:45:13;22.67;;;13.93;;
2644;SDS011;15377;48.540;9.268;2022-12-07T07:47:38;23.63;;;12.90;;
2644;SDS011;15377;48.540;9.268;2022-12-07T07:50:03;20.50;;;13.17;;
2644;SDS011;15377;48.540;9.268;2022-12-07T07:52:30;23.00;;;14.67;;
2644;SDS011;15377;48.540;9.268;2022-12-07T07:54:56;48.95;;;28.45;;
2644;SDS011;15377;48.540;9.268;2022-12-07T07:57:21;34.50;;;19.17;;
2644;SDS011;15377;48.540;9.268;2022-12-07T07:59:46;31.87;;;18.20;;
2644;SDS011;15377;48.540;9.268;2022-12-07T08:02:13;23.13;;;14.17;;
2644;SDS011;15377;48.540;9.268;2022-12-07T08:04:43;27.88;;;15.85;;
2644;SDS011;15377;48.540;9.268;2022-12-07T08:07:09;27.25;;;18.17;;
2644;SDS011;15377;48.540;9.268;2022-12-07T08:09:34;21.80;;;13.53;;
2644;SDS011;15377;48.540;9.268;2022-12-07T08:12:00;23.77;;;13.53;;
2644;SDS011;15377;48.540;9.268;2022-12-07T08:14:25;20.23;;;12.73;;
2644;SDS011;15377;48.540;9.268;2022-12-07T08:16:52;19.27;;;11.60;;
2644;SDS011;15377;48.540;9.268;2022-12-07T08:19:18;19.73;;;12.37;;
2644;SDS011;15377;48.540;9.268;2022-12-07T08:21:43;16.77;;;11.63;;
2644;SDS011;15377;48.540;9.268;2022-12-07T08:24:08;19.40;;;12.10;;
2644;SDS011;15377;48.540;9.268;2022-12-07T08:26:34;17.60;;;11.70;;
2644;SDS011;15377;48.540;9.268;2022-12-07T08:28:59;21.57;;;13.57;;
2644;SDS011;15377;48.540;9.268;2022-12-07T08:31:25;17.03;;;10.53;;
2644;SDS011;15377;48.540;9.268;2022-12-07T08:33:50;16.47;;;10.37;;
2644;SDS011;15377;48.540;9.268;2022-12-07T08:36:16;15.70;;;10.27;;
2644;SDS011;15377;48.540;9.268;2022-12-07T08:38:42;22.08;;;13.25;;
2644;SDS011;15377;48.540;9.268;2022-12-07T08:41:08;38.77;;;20.73;;
2644;SDS011;15377;48.540;9.268;2022-12-07T08:43:34;41.83;;;24.87;;
2644;SDS011;15377;48.540;9.268;2022-12-07T08:46:04;16.98;;;10.70;;
2644;SDS011;15377;48.540;9.268;2022-12-07T08:48:53;21.13;;;11.05;;
2644;SDS011;15377;48.540;9.268;2022-12-07T08:51:23;17.08;;;11.00;;
2644;SDS011;15377;48.540;9.268;2022-12-07T08:53:49;16.37;;;10.20;;
2644;SDS011;15377;48.540;9.268;2022-12-07T08:56:15;14.90;;;11.00;;
2644;SDS011;15377;48.540;9.268;2022-12-07T08:58:41;16.13;;;10.17;;
2644;SDS011;15377;48.540;9.268;2022-12-07T09:01:07;16.37;;;10.53;;
2644;SDS011;15377;48.540;9.268;2022-12-07T09:03:32;16.60;;;9.80;;
2644;SDS011;15377;48.540;9.268;2022-12-07T09:05:58;16.30;;;10.50;;
2644;SDS011;15377;48.540;9.268;2022-12-07T09:08:26;16.17;;;10.30;;
2644;SDS011;15377;48.540;9.268;2022-12-07T09:10:54;17.05;;;10.48;;
2644;SDS011;15377;48.540;9.268;2022-12-07T09:13:20;17.03;;;11.23;;
2644;SDS011;15377;48.540;9.268;2022-12-07T09:15:45;19.53;;;9.77;;
2644;SDS011;15377;48.540;9.268;2022-12-07T09:18:10;28.60;;;17.00;;
2644;SDS011;15377;48.540;9.268;2022-12-07T09:20:36;25.47;;;15.23;;
2644;SDS011;15377;48.540;9.268;2022-12-07T09:23:01;18.90;;;11.03;;
2644;SDS011;15377;48.540;9.268;2022-12-07T09:25:26;24.20;;;15.43;;
2644;SDS011;15377;48.540;9.268;2022-12-07T09:27:55;17.83;;;12.23;;
2644;SDS011;15377;48.540;9.268;2022-12-07T09:30:21;16.52;;;10.40;;
2644;SDS011;15377;48.540;9.268;2022-12-07T09:32:46;18.27;;;11.30;;
2644;SDS011;15377;48.540;9.268;2022-12-07T09:35:12;15.30;;;9.67;;
2644;SDS011;15377;48.540;9.268;2022-12-07T09:37:37;19.87;;;11.30;;
2644;SDS011;15377;48.540;9.268;2022-12-07T09:40:03;19.70;;;11.63;;
2644;SDS011;15377;48.540;9.268;2022-12-07T09:42:32;12.88;;;8.57;;
2644;SDS011;15377;48.540;9.268;2022-12-07T09:45:02;14.80;;;9.60;;
2644;SDS011;15377;48.540;9.268;2022-12-07T09:47:30;12.85;;;8.80;;
2644;SDS011;15377;48.540;9.268;2022-12-07T09:49:58;17.73;;;10.83;;
2644;SDS011;15377;48.540;9.268;2022-12-07T09:52:29;17.88;;;9.60;;
2644;SDS011;15377;48.540;9.268;2022-12-07T09:54:55;16.77;;;10.07;;
2644;SDS011;15377;48.540;9.268;2022-12-07T09:57:28;14.00;;;9.13;;
2644;SDS011;15377;48.540;9.268;2022-12-07T09:59:57;14.73;;;9.15;;
2644;SDS011;15377;48.540;9.268;2022-12-07T10:02:34;13.95;;;9.07;;
2644;SDS011;15377;48.540;9.268;2022-12-07T10:05:00;15.73;;;8.55;;
2644;SDS011;15377;48.540;9.268;2022-12-07T10:07:26;12.77;;;7.43;;
2644;SDS011;15377;48.540;9.268;2022-12-07T10:09:51;12.57;;;7.77;;
2644;SDS011;15377;48.540;9.268;2022-12-07T10:12:16;12.50;;;8.00;;
2644;SDS011;15377;48.540;9.268;2022-12-07T10:14:55;13.47;;;8.03;;
2644;SDS011;15377;48.540;9.268;2022-12-07T10:17:29;11.63;;;7.93;;
2644;SDS011;15377;48.540;9.268;2022-12-07T10:25:20;13.43;;;8.18;;
2644;SDS011;15377;48.540;9.268;2022-12-07T10:33:28;12.48;;;7.25;;
2644;SDS011;15377;48.540;9.268;2022-12-07T10:35:56;9.95;;;5.70;;
2644;SDS011;15377;48.540;9.268;2022-12-07T10:38:21;11.70;;;6.47;;
2644;SDS011;15377;48.540;9.268;2022-12-07T10:41:12;12.73;;;6.00;;
2644;SDS011;15377;48.540;9.268;2022-12-07T10:43:37;15.30;;;6.30;;
2644;SDS011;15377;48.540;9.268;2022-12-07T10:54:39;11.52;;;5.45;;
2644;SDS011;15377;48.540;9.268;2022-12-07T10:57:13;12.98;;;6.78;;
2644;SDS011;15377;48.540;9.268;2022-12-07T11:05:49;10.55;;;6.00;;
2644;SDS011;15377;48.540;9.268;2022-12-07T11:11:06;10.32;;;5.78;;
2644;SDS011;15377;48.540;9.268;2022-12-07T11:13:48;11.05;;;7.22;;
2644;SDS011;15377;48.540;9.268;2022-12-07T11:16:34;9.65;;;5.85;;
2644;SDS011;15377;48.540;9.268;2022-12-07T11:19:15;12.85;;;6.50;;
2644;SDS011;15377;48.540;9.268;2022-12-07T11:22:04;11.30;;;5.53;;
2644;SDS011;15377;48.540;9.268;2022-12-07T11:25:22;12.60;;;5.93;;
2644;SDS011;15377;48.540;9.268;2022-12-07T11:28:00;10.10;;;5.95;;
2644;SDS011;15377;48.540;9.268;2022-12-07T11:30:47;11.00;;;6.65;;
2644;SDS011;15377;48.540;9.268;2022-12-07T11:33:43;12.13;;;5.80;;
2644;SDS011;15377;48.540;9.268;2022-12-07T11:38:53;13.40;;;7.15;;
2644;SDS011;15377;48.540;9.268;2022-12-07T11:41:33;11.55;;;6.80;;
2644;SDS011;15377;48.540;9.268;2022-12-07T11:44:04;13.88;;;7.57;;
2644;SDS011;15377;48.540;9.268;2022-12-07T11:46:39;12.40;;;6.90;;
2644;SDS011;15377;48.540;9.268;2022-12-07T11:49:20;12.07;;;6.55;;
2644;SDS011;15377;48.540;9.268;2022-12-07T11:52:02;13.68;;;6.90;;
2644;SDS011;15377;48.540;9.268;2022-12-07T11:54:40;8.50;;;4.53;;
2644;SDS011;15377;48.540;9.268;2022-12-07T11:57:10;12.00;;;7.10;;
2644;SDS011;15377;48.540;9.268;2022-12-07T11:59:45;10.43;;;6.70;;
2644;SDS011;15377;48.540;9.268;2022-12-07T12:02:15;9.32;;;5.70;;
2644;SDS011;15377;48.540;9.268;2022-12-07T12:05:12;10.55;;;6.07;;
2644;SDS011;15377;48.540;9.268;2022-12-07T12:07:40;9.10;;;5.38;;
2644;SDS011;15377;48.540;9.268;2022-12-07T12:13:10;10.40;;;5.70;;
2644;SDS011;15377;48.540;9.268;2022-12-07T12:21:27;11.37;;;5.20;;
2644;SDS011;15377;48.540;9.268;2022-12-07T12:26:25;9.17;;;5.50;;
2644;SDS011;15377;48.540;9.268;2022-12-07T12:33:48;10.50;;;5.30;;
2644;SDS011;15377;48.540;9.268;2022-12-07T12:46:57;10.68;;;6.25;;
2644;SDS011;15377;48.540;9.268;2022-12-07T12:51:48;7.20;;;4.07;;
2644;SDS011;15377;48.540;9.268;2022-12-07T12:54:34;8.45;;;5.47;;
2644;SDS011;15377;48.540;9.268;2022-12-07T12:59:57;9.38;;;5.10;;
2644;SDS011;15377;48.540;9.268;2022-12-07T13:02:31;8.98;;;5.50;;
2644;SDS011;15377;48.540;9.268;2022-12-07T13:05:03;9.32;;;5.28;;
2644;SDS011;15377;48.540;9.268;2022-12-07T13:15:34;10.77;;;5.80;;
2644;SDS011;15377;48.540;9.268;2022-12-07T13:23:31;9.63;;;5.47;;
2644;SDS011;15377;48.540;9.268;2022-12-07T13:29:17;9.70;;;5.13;;
2644;SDS011;15377;48.540;9.268;2022-12-07T13:31:54;10.27;;;6.13;;
2644;SDS011;15377;48.540;9.268;2022-12-07T13:34:37;9.85;;;5.38;;
2644;SDS011;15377;48.540;9.268;2022-12-07T13:37:14;13.02;;;7.82;;
2644;SDS011;15377;48.540;9.268;2022-12-07T13:39:47;11.68;;;5.90;;
2644;SDS011;15377;48.540;9.268;2022-12-07T13:42:19;9.87;;;5.77;;
2644;SDS011;15377;48.540;9.268;2022-12-07T13:44:49;11.40;;;5.60;;
2644;SDS011;15377;48.540;9.268;2022-12-07T13:49:49;12.48;;;5.90;;
2644;SDS011;15377;48.540;9.268;2022-12-07T13:57:24;9.25;;;5.50;;
2644;SDS011;15377;48.540;9.268;2022-12-07T13:59:50;8.70;;;5.60;;
2644;SDS011;15377;48.540;9.268;2022-12-07T14:02:25;10.23;;;5.72;;
2644;SDS011;15377;48.540;9.268;2022-12-07T14:05:05;12.45;;;4.95;;
2644;SDS011;15377;48.540;9.268;2022-12-07T14:12:55;12.45;;;6.35;;
2644;SDS011;15377;48.540;9.268;2022-12-07T14:15:32;10.05;;;5.60;;
2644;SDS011;15377;48.540;9.268;2022-12-07T14:18:02;13.85;;;8.48;;
2644;SDS011;15377;48.540;9.268;2022-12-07T14:20:40;20.63;;;10.38;;
2644;SDS011;15377;48.540;9.268;2022-12-07T14:23:20;13.55;;;6.50;;
2644;SDS011;15377;48.540;9.268;2022-12-07T14:25:50;11.88;;;6.50;;
2644;SDS011;15377;48.540;9.268;2022-12-07T14:28:33;16.23;;;8.45;;
2644;SDS011;15377;48.540;9.268;2022-12-07T14:31:00;10.65;;;5.70;;
2644;SDS011;15377;48.540;9.268;2022-12-07T14:33:26;11.43;;;6.97;;
2644;SDS011;15377;48.540;9.268;2022-12-07T14:35:52;9.80;;;5.60;;
2644;SDS011;15377;48.540;9.268;2022-12-07T14:38:23;12.10;;;6.38;;
2644;SDS011;15377;48.540;9.268;2022-12-07T14:40:49;12.65;;;6.32;;
2644;SDS011;15377;48.540;9.268;2022-12-07T14:43:16;16.17;;;9.63;;
2644;SDS011;15377;48.540;9.268;2022-12-07T14:45:43;27.90;;;12.50;;
2644;SDS011;15377;48.540;9.268;2022-12-07T14:48:12;16.37;;;6.00;;
2644;SDS011;15377;48.540;9.268;2022-12-07T14:50:40;12.50;;;6.70;;
2644;SDS011;15377;48.540;9.268;2022-12-07T14:53:14;11.40;;;6.55;;
2644;SDS011;15377;48.540;9.268;2022-12-07T14:55:41;11.52;;;6.70;;
2644;SDS011;15377;48.540;9.268;2022-12-07T14:58:13;10.93;;;5.53;;
2644;SDS011;15377;48.540;9.268;2022-12-07T15:00:40;13.00;;;7.35;;
2644;SDS011;15377;48.540;9.268;2022-12-07T15:03:06;10.57;;;5.30;;
2644;SDS011;15377;48.540;9.268;2022-12-07T15:05:31;10.63;;;6.50;;
2644;SDS011;15377;48.540;9.268;2022-12-07T15:07:58;16.83;;;8.52;;
2644;SDS011;15377;48.540;9.268;2022-12-07T15:10:25;10.40;;;6.07;;
2644;SDS011;15377;48.540;9.268;2022-12-07T15:12:57;10.50;;;5.95;;
2644;SDS011;15377;48.540;9.268;2022-12-07T15:15:49;13.10;;;6.93;;
2644;SDS011;15377;48.540;9.268;2022-12-07T15:18:16;10.95;;;6.43;;
2644;SDS011;15377;48.540;9.268;2022-12-07T15:20:42;16.60;;;7.80;;
2644;SDS011;15377;48.540;9.268;2022-12-07T15:23:07;12.50;;;7.73;;
2644;SDS011;15377;48.540;9.268;2022-12-07T15:25:34;15.80;;;8.63;;
2644;SDS011;15377;48.540;9.268;2022-12-07T15:27:59;15.17;;;8.53;;
2644;SDS011;15377;48.540;9.268;2022-12-07T15:30:24;15.90;;;9.03;;
2644;SDS011;15377;48.540;9.268;2022-12-07T15:32:50;14.17;;;7.80;;
2644;SDS011;15377;48.540;9.268;2022-12-07T15:35:16;12.20;;;6.53;;
2644;SDS011;15377;48.540;9.268;2022-12-07T15:37:42;13.80;;;8.20;;
2644;SDS011;15377;48.540;9.268;2022-12-07T15:40:07;18.30;;;11.60;;
2644;SDS011;15377;48.540;9.268;2022-12-07T15:42:33;12.05;;;6.60;;
2644;SDS011;15377;48.540;9.268;2022-12-07T15:45:00;13.63;;;7.88;;
2644;SDS011;15377;48.540;9.268;2022-12-07T15:47:28;16.98;;;8.57;;
2644;SDS011;15377;48.540;9.268;2022-12-07T15:49:54;13.68;;;7.43;;
2644;SDS011;15377;48.540;9.268;2022-12-07T15:52:20;14.27;;;8.40;;
2644;SDS011;15377;48.540;9.268;2022-12-07T15:54:45;15.33;;;8.27;;
2644;SDS011;15377;48.540;9.268;2022-12-07T15:57:12;12.75;;;8.43;;
2644;SDS011;15377;48.540;9.268;2022-12-07T15:59:37;21.73;;;9.00;;
2644;SDS011;15377;48.540;9.268;2022-12-07T16:02:03;17.57;;;11.63;;
2644;SDS011;15377;48.540;9.268;2022-12-07T16:04:28;13.57;;;8.30;;
2644;SDS011;15377;48.540;9.268;2022-12-07T16:06:54;13.82;;;8.57;;
2644;SDS011;15377;48.540;9.268;2022-12-07T16:09:19;12.07;;;7.10;;
2644;SDS011;15377;48.540;9.268;2022-12-07T16:11:45;15.97;;;8.83;;
2644;SDS011;15377;48.540;9.268;2022-12-07T16:14:11;13.13;;;7.83;;
2644;SDS011;15377;48.540;9.268;2022-12-07T16:16:36;13.10;;;7.30;;
2644;SDS011;15377;48.540;9.268;2022-12-07T16:19:01;15.17;;;7.83;;
2644;SDS011;15377;48.540;9.268;2022-12-07T16:21:27;14.43;;;7.67;;
2644;SDS011;15377;48.540;9.268;2022-12-07T16:23:53;13.27;;;7.30;;
2644;SDS011;15377;48.540;9.268;2022-12-07T16:26:20;13.00;;;8.00;;
2644;SDS011;15377;48.540;9.268;2022-12-07T16:28:50;13.45;;;7.65;;
2644;SDS011;15377;48.540;9.268;2022-12-07T16:31:18;12.35;;;7.35;;
2644;SDS011;15377;48.540;9.268;2022-12-07T16:33:45;12.75;;;7.07;;
2644;SDS011;15377;48.540;9.268;2022-12-07T16:36:11;19.23;;;9.73;;
2644;SDS011;15377;48.540;9.268;2022-12-07T16:38:38;13.55;;;7.80;;
2644;SDS011;15377;48.540;9.268;2022-12-07T16:41:04;15.27;;;8.40;;
2644;SDS011;15377;48.540;9.268;2022-12-07T16:43:31;18.40;;;9.77;;
2644;SDS011;15377;48.540;9.268;2022-12-07T16:45:57;15.13;;;8.47;;
2644;SDS011;15377;48.540;9.268;2022-12-07T16:48:22;13.83;;;9.03;;
2644;SDS011;15377;48.540;9.268;2022-12-07T16:50:48;12.23;;;8.50;;
2644;SDS011;15377;48.540;9.268;2022-12-07T16:53:13;13.17;;;8.20;;
2644;SDS011;15377;48.540;9.268;2022-12-07T16:55:41;14.95;;;7.68;;
2644;SDS011;15377;48.540;9.268;2022-12-07T16:58:09;12.30;;;7.90;;
2644;SDS011;15377;48.540;9.268;2022-12-07T17:00:35;15.23;;;8.88;;